ニアメ の空港の天気 - METARとTAF

ニアメ/ディオリ・アマニ国際空港 ( DRRN / NIM ) - ニジェール ニアメ
飛行場実況気象(Metar)
観測時間09/25 01:00 WAT (09/25 00:00 UTC)
風向・風速南南東 3m/s
視程10km以上
天気現象
なし
気温30℃
湿度62%
気圧1012hPa
METARDRRN 250000Z 16005KT 120V190 CAVOK 30/22 Q1012 NOSIG
過去の天気等 Google飛行場航空写真 Wunderground天気予報

過去48時間のMETAR

飛行場予報(TAF)
発表時間: 9/25 00:00 WAT (9/24 23:00 UTC)
予報対象時間: 25日1時 WAT ~ 26日7時 WAT
風向・風速南南西 3m/s
視程10km以上
なし
25日15時 WAT ~ 25日19時 WAT に 確率 40% で一時的に
風向・風速東南東 13m/s 瞬間風速 21m/s
視程1200m
天気現象スコール 高い風塵 雷
全天の4割程度の雲 雲底高度 910m
少しの積乱雲 雲底高度 1220m
TAF DRRN 242300Z 2500/2606 20006KT CAVOK
PROB40 TEMPO 2514/2518 12025G40KT 1200 SQ BLDU TS SCT030 FEW040CB